sensor_id;sensor_type;location;lat;lon;timestamp;pressure;altitude;pressure_sealevel;temperature;humidity
55517;BME280;41724;51.176;-0.708;2022-09-25T00:02:08;101538.64;;;16.32;46.57
55517;BME280;41724;51.176;-0.708;2022-09-25T00:04:35;101537.38;;;16.66;46.62
55517;BME280;41724;51.176;-0.708;2022-09-25T00:07:02;101537.18;;;16.82;46.55
55517;BME280;41724;51.176;-0.708;2022-09-25T00:09:32;101541.67;;;16.61;47.19
55517;BME280;41724;51.176;-0.708;2022-09-25T00:11:59;101542.57;;;16.23;47.30
55517;BME280;41724;51.176;-0.708;2022-09-25T00:14:26;101543.81;;;16.44;47.09
55517;BME280;41724;51.176;-0.708;2022-09-25T00:16:53;101542.67;;;16.22;47.31
55517;BME280;41724;51.176;-0.708;2022-09-25T00:19:21;101542.85;;;15.92;47.17
55517;BME280;41724;51.176;-0.708;2022-09-25T00:21:48;101542.76;;;16.21;47.47
55517;BME280;41724;51.176;-0.708;2022-09-25T00:24:16;101540.53;;;15.99;47.32
55517;BME280;41724;51.176;-0.708;2022-09-25T00:26:43;101538.83;;;16.30;47.13
55517;BME280;41724;51.176;-0.708;2022-09-25T00:29:16;101543.99;;;16.23;47.11
55517;BME280;41724;51.176;-0.708;2022-09-25T00:31:44;101541.49;;;15.93;47.18
55517;BME280;41724;51.176;-0.708;2022-09-25T00:34:12;101544.51;;;15.96;47.12
55517;BME280;41724;51.176;-0.708;2022-09-25T00:36:39;101543.01;;;16.15;47.10
55517;BME280;41724;51.176;-0.708;2022-09-25T00:39:06;101547.66;;;15.88;46.96
55517;BME280;41724;51.176;-0.708;2022-09-25T00:41:34;101556.29;;;16.35;47.06
55517;BME280;41724;51.176;-0.708;2022-09-25T00:44:03;101562.56;;;16.28;47.38
55517;BME280;41724;51.176;-0.708;2022-09-25T00:46:35;101564.82;;;16.26;47.60
55517;BME280;41724;51.176;-0.708;2022-09-25T00:49:09;101569.58;;;16.27;47.47
55517;BME280;41724;51.176;-0.708;2022-09-25T00:51:42;101574.32;;;16.03;47.64
55517;BME280;41724;51.176;-0.708;2022-09-25T00:54:15;101578.53;;;16.01;47.61
55517;BME280;41724;51.176;-0.708;2022-09-25T00:56:46;101584.97;;;16.24;47.47
55517;BME280;41724;51.176;-0.708;2022-09-25T00:59:17;101582.01;;;16.20;47.61
55517;BME280;41724;51.176;-0.708;2022-09-25T01:01:46;101577.67;;;16.03;48.04
55517;BME280;41724;51.176;-0.708;2022-09-25T01:04:14;101579.05;;;16.02;48.10
55517;BME280;41724;51.176;-0.708;2022-09-25T01:06:42;101580.59;;;15.87;48.42
55517;BME280;41724;51.176;-0.708;2022-09-25T01:09:10;101575.79;;;16.03;48.16
55517;BME280;41724;51.176;-0.708;2022-09-25T01:11:37;101573.09;;;16.00;48.07
55517;BME280;41724;51.176;-0.708;2022-09-25T01:14:05;101577.65;;;15.80;48.64
55517;BME280;41724;51.176;-0.708;2022-09-25T01:16:37;101576.78;;;15.86;48.36
55517;BME280;41724;51.176;-0.708;2022-09-25T01:19:21;101571.07;;;15.44;48.30
55517;BME280;41724;51.176;-0.708;2022-09-25T01:22:02;101565.34;;;15.88;47.79
55517;BME280;41724;51.176;-0.708;2022-09-25T01:24:43;101562.25;;;16.07;47.34
55517;BME280;41724;51.176;-0.708;2022-09-25T01:27:31;101562.74;;;16.01;47.31
55517;BME280;41724;51.176;-0.708;2022-09-25T01:30:05;101562.53;;;15.73;47.32
55517;BME280;41724;51.176;-0.708;2022-09-25T01:32:38;101562.79;;;15.91;47.65
55517;BME280;41724;51.176;-0.708;2022-09-25T01:35:14;101563.45;;;15.93;47.39
55517;BME280;41724;51.176;-0.708;2022-09-25T01:37:52;101558.64;;;15.90;47.07
55517;BME280;41724;51.176;-0.708;2022-09-25T01:40:25;101563.04;;;15.81;47.04
55517;BME280;41724;51.176;-0.708;2022-09-25T01:43:03;101559.62;;;15.75;47.49
55517;BME280;41724;51.176;-0.708;2022-09-25T01:45:38;101557.51;;;15.58;47.76
55517;BME280;41724;51.176;-0.708;2022-09-25T01:48:07;101557.58;;;15.55;47.46
55517;BME280;41724;51.176;-0.708;2022-09-25T01:50:42;101559.70;;;15.74;47.12
55517;BME280;41724;51.176;-0.708;2022-09-25T01:53:17;101559.58;;;15.65;47.47
55517;BME280;41724;51.176;-0.708;2022-09-25T01:55:47;101559.57;;;15.35;47.78
55517;BME280;41724;51.176;-0.708;2022-09-25T01:58:23;101562.08;;;15.62;47.39
55517;BME280;41724;51.176;-0.708;2022-09-25T02:00:58;101559.47;;;15.28;47.22
55517;BME280;41724;51.176;-0.708;2022-09-25T02:03:34;101563.36;;;15.58;47.01
55517;BME280;41724;51.176;-0.708;2022-09-25T02:06:06;101558.01;;;15.15;47.30
55517;BME280;41724;51.176;-0.708;2022-09-25T02:08:37;101564.43;;;15.33;47.42
55517;BME280;41724;51.176;-0.708;2022-09-25T02:11:08;101567.31;;;15.12;47.76
55517;BME280;41724;51.176;-0.708;2022-09-25T02:13:39;101566.07;;;15.14;47.69
55517;BME280;41724;51.176;-0.708;2022-09-25T02:16:11;101571.16;;;15.06;47.19
55517;BME280;41724;51.176;-0.708;2022-09-25T02:18:40;101571.35;;;15.14;47.61
55517;BME280;41724;51.176;-0.708;2022-09-25T02:21:16;101572.58;;;15.12;47.66
55517;BME280;41724;51.176;-0.708;2022-09-25T02:23:55;101570.68;;;14.71;47.11
55517;BME280;41724;51.176;-0.708;2022-09-25T02:26:27;101567.57;;;14.65;47.78
55517;BME280;41724;51.176;-0.708;2022-09-25T02:28:56;101566.70;;;14.92;47.38
55517;BME280;41724;51.176;-0.708;2022-09-25T02:31:27;101563.97;;;14.81;47.72
55517;BME280;41724;51.176;-0.708;2022-09-25T02:33:55;101560.96;;;14.55;48.00
55517;BME280;41724;51.176;-0.708;2022-09-25T02:36:23;101559.71;;;14.55;47.77
55517;BME280;41724;51.176;-0.708;2022-09-25T02:38:53;101560.34;;;14.42;48.16
55517;BME280;41724;51.176;-0.708;2022-09-25T02:41:33;101561.79;;;14.44;47.70
55517;BME280;41724;51.176;-0.708;2022-09-25T02:44:10;101564.30;;;14.53;48.15
55517;BME280;41724;51.176;-0.708;2022-09-25T02:46:45;101571.31;;;14.58;47.81
55517;BME280;41724;51.176;-0.708;2022-09-25T02:49:21;101574.69;;;13.95;47.61
55517;BME280;41724;51.176;-0.708;2022-09-25T02:51:55;101573.82;;;13.98;47.92
55517;BME280;41724;51.176;-0.708;2022-09-25T02:54:29;101577.82;;;13.96;48.22
55517;BME280;41724;51.176;-0.708;2022-09-25T02:57:05;101580.63;;;13.87;47.58
55517;BME280;41724;51.176;-0.708;2022-09-25T02:59:37;101578.45;;;13.77;48.73
55517;BME280;41724;51.176;-0.708;2022-09-25T03:02:09;101580.60;;;14.01;47.89
55517;BME280;41724;51.176;-0.708;2022-09-25T03:04:37;101581.66;;;13.96;47.67
55517;BME280;41724;51.176;-0.708;2022-09-25T03:07:06;101583.10;;;13.46;47.40
55517;BME280;41724;51.176;-0.708;2022-09-25T03:09:35;101586.09;;;13.88;47.37
55517;BME280;41724;51.176;-0.708;2022-09-25T03:12:04;101589.91;;;13.73;47.27
55517;BME280;41724;51.176;-0.708;2022-09-25T03:14:31;101592.18;;;13.45;47.21
55517;BME280;41724;51.176;-0.708;2022-09-25T03:17:02;101593.60;;;13.71;46.83
55517;BME280;41724;51.176;-0.708;2022-09-25T03:19:32;101590.23;;;13.69;46.64
55517;BME280;41724;51.176;-0.708;2022-09-25T03:22:00;101588.97;;;13.21;46.65
55517;BME280;41724;51.176;-0.708;2022-09-25T03:24:28;101589.95;;;13.25;46.90
55517;BME280;41724;51.176;-0.708;2022-09-25T03:26:55;101589.89;;;13.19;46.86
55517;BME280;41724;51.176;-0.708;2022-09-25T03:29:22;101593.10;;;13.38;46.56
55517;BME280;41724;51.176;-0.708;2022-09-25T03:31:50;101592.14;;;13.04;46.50
55517;BME280;41724;51.176;-0.708;2022-09-25T03:34:18;101591.43;;;13.00;46.84
55517;BME280;41724;51.176;-0.708;2022-09-25T03:36:45;101591.01;;;12.99;46.33
55517;BME280;41724;51.176;-0.708;2022-09-25T03:39:14;101595.81;;;13.27;46.48
55517;BME280;41724;51.176;-0.708;2022-09-25T03:41:42;101596.65;;;12.90;46.82
55517;BME280;41724;51.176;-0.708;2022-09-25T03:44:10;101597.16;;;12.74;46.76
55517;BME280;41724;51.176;-0.708;2022-09-25T03:46:37;101597.10;;;12.31;47.37
55517;BME280;41724;51.176;-0.708;2022-09-25T03:49:04;101595.15;;;12.34;47.59
55517;BME280;41724;51.176;-0.708;2022-09-25T03:51:32;101592.24;;;12.70;46.93
55517;BME280;41724;51.176;-0.708;2022-09-25T03:53:59;101593.98;;;12.65;47.00
55517;BME280;41724;51.176;-0.708;2022-09-25T03:56:27;101592.14;;;12.50;46.72
55517;BME280;41724;51.176;-0.708;2022-09-25T03:58:55;101599.75;;;12.26;47.47
55517;BME280;41724;51.176;-0.708;2022-09-25T04:01:24;101595.68;;;12.26;46.93
55517;BME280;41724;51.176;-0.708;2022-09-25T04:03:52;101593.47;;;12.52;46.49
55517;BME280;41724;51.176;-0.708;2022-09-25T04:06:22;101588.52;;;12.23;46.31
55517;BME280;41724;51.176;-0.708;2022-09-25T04:08:52;101594.11;;;12.28;46.82
55517;BME280;41724;51.176;-0.708;2022-09-25T04:11:20;101596.81;;;12.19;46.57
55517;BME280;41724;51.176;-0.708;2022-09-25T04:13:48;101591.24;;;12.10;46.59
55517;BME280;41724;51.176;-0.708;2022-09-25T04:16:16;101589.38;;;11.98;46.92
55517;BME280;41724;51.176;-0.708;2022-09-25T04:18:43;101584.14;;;12.08;46.51
55517;BME280;41724;51.176;-0.708;2022-09-25T04:21:12;101585.57;;;12.03;46.41
55517;BME280;41724;51.176;-0.708;2022-09-25T04:23:40;101583.18;;;11.89;46.56
55517;BME280;41724;51.176;-0.708;2022-09-25T04:26:08;101583.55;;;12.03;45.95
55517;BME280;41724;51.176;-0.708;2022-09-25T04:28:36;101581.50;;;11.86;46.86
55517;BME280;41724;51.176;-0.708;2022-09-25T04:31:04;101580.06;;;11.83;47.56
55517;BME280;41724;51.176;-0.708;2022-09-25T04:33:31;101576.25;;;11.37;47.42
55517;BME280;41724;51.176;-0.708;2022-09-25T04:35:58;101570.84;;;11.91;47.06
55517;BME280;41724;51.176;-0.708;2022-09-25T04:38:26;101568.29;;;11.79;46.79
55517;BME280;41724;51.176;-0.708;2022-09-25T04:40:53;101569.63;;;11.47;46.88
55517;BME280;41724;51.176;-0.708;2022-09-25T04:43:20;101568.18;;;11.52;46.38
55517;BME280;41724;51.176;-0.708;2022-09-25T04:45:48;101567.31;;;11.62;45.72
55517;BME280;41724;51.176;-0.708;2022-09-25T04:48:15;101568.29;;;11.83;46.47
55517;BME280;41724;51.176;-0.708;2022-09-25T04:50:47;101569.02;;;11.42;46.33
55517;BME280;41724;51.176;-0.708;2022-09-25T04:53:15;101568.82;;;11.38;45.95
55517;BME280;41724;51.176;-0.708;2022-09-25T04:55:43;101569.47;;;11.59;46.34
55517;BME280;41724;51.176;-0.708;2022-09-25T04:58:11;101567.96;;;11.45;46.27
55517;BME280;41724;51.176;-0.708;2022-09-25T05:00:38;101567.55;;;11.69;46.21
55517;BME280;41724;51.176;-0.708;2022-09-25T05:03:05;101566.86;;;11.20;46.80
55517;BME280;41724;51.176;-0.708;2022-09-25T05:05:33;101568.06;;;11.35;47.05
55517;BME280;41724;51.176;-0.708;2022-09-25T05:08:01;101567.57;;;11.29;46.82
55517;BME280;41724;51.176;-0.708;2022-09-25T05:10:30;101568.51;;;10.80;46.95
55517;BME280;41724;51.176;-0.708;2022-09-25T05:12:59;101568.86;;;11.23;46.01
55517;BME280;41724;51.176;-0.708;2022-09-25T05:15:29;101568.68;;;11.39;46.46
55517;BME280;41724;51.176;-0.708;2022-09-25T05:18:01;101565.89;;;11.50;45.90
55517;BME280;41724;51.176;-0.708;2022-09-25T05:20:29;101565.77;;;11.02;45.80
55517;BME280;41724;51.176;-0.708;2022-09-25T05:22:56;101562.99;;;11.32;45.23
55517;BME280;41724;51.176;-0.708;2022-09-25T05:25:24;101565.45;;;11.27;45.71
55517;BME280;41724;51.176;-0.708;2022-09-25T05:27:52;101566.12;;;11.51;45.60
55517;BME280;41724;51.176;-0.708;2022-09-25T05:30:19;101563.08;;;11.40;45.37
55517;BME280;41724;51.176;-0.708;2022-09-25T05:32:47;101562.15;;;11.01;45.72
55517;BME280;41724;51.176;-0.708;2022-09-25T05:35:16;101562.39;;;11.34;45.51
55517;BME280;41724;51.176;-0.708;2022-09-25T05:37:43;101570.42;;;11.04;46.17
55517;BME280;41724;51.176;-0.708;2022-09-25T05:40:11;101570.00;;;10.81;45.86
55517;BME280;41724;51.176;-0.708;2022-09-25T05:42:38;101574.76;;;10.81;45.92
55517;BME280;41724;51.176;-0.708;2022-09-25T05:45:06;101577.32;;;10.75;45.93
55517;BME280;41724;51.176;-0.708;2022-09-25T05:47:33;101580.04;;;10.77;46.20
55517;BME280;41724;51.176;-0.708;2022-09-25T05:50:01;101582.50;;;10.66;46.73
55517;BME280;41724;51.176;-0.708;2022-09-25T05:52:28;101583.33;;;10.32;47.09
55517;BME280;41724;51.176;-0.708;2022-09-25T05:54:55;101586.75;;;10.47;46.74
55517;BME280;41724;51.176;-0.708;2022-09-25T05:57:23;101587.44;;;10.57;46.51
55517;BME280;41724;51.176;-0.708;2022-09-25T05:59:50;101589.31;;;10.42;47.00
55517;BME280;41724;51.176;-0.708;2022-09-25T06:02:17;101589.87;;;10.42;46.77
55517;BME280;41724;51.176;-0.708;2022-09-25T06:04:45;101588.48;;;10.46;46.73
55517;BME280;41724;51.176;-0.708;2022-09-25T06:07:12;101585.72;;;10.52;46.57
55517;BME280;41724;51.176;-0.708;2022-09-25T06:09:39;101588.06;;;10.70;46.71
55517;BME280;41724;51.176;-0.708;2022-09-25T06:12:07;101589.27;;;10.71;46.53
55517;BME280;41724;51.176;-0.708;2022-09-25T06:14:34;101594.42;;;10.63;47.01
55517;BME280;41724;51.176;-0.708;2022-09-25T06:17:02;101598.16;;;10.51;46.55
55517;BME280;41724;51.176;-0.708;2022-09-25T06:19:30;101598.81;;;10.46;46.51
55517;BME280;41724;51.176;-0.708;2022-09-25T06:21:57;101599.82;;;10.43;47.80
55517;BME280;41724;51.176;-0.708;2022-09-25T06:24:24;101601.52;;;10.57;47.44
55517;BME280;41724;51.176;-0.708;2022-09-25T06:26:52;101601.00;;;10.29;47.68
55517;BME280;41724;51.176;-0.708;2022-09-25T06:29:19;101600.12;;;10.60;47.59
55517;BME280;41724;51.176;-0.708;2022-09-25T06:31:46;101596.28;;;10.28;47.92
55517;BME280;41724;51.176;-0.708;2022-09-25T06:34:14;101599.07;;;10.39;47.81
55517;BME280;41724;51.176;-0.708;2022-09-25T06:36:42;101600.38;;;10.66;47.19
55517;BME280;41724;51.176;-0.708;2022-09-25T06:39:09;101594.25;;;10.80;46.94
55517;BME280;41724;51.176;-0.708;2022-09-25T06:41:36;101594.16;;;10.89;46.96
55517;BME280;41724;51.176;-0.708;2022-09-25T06:44:03;101590.84;;;11.01;46.98
55517;BME280;41724;51.176;-0.708;2022-09-25T06:46:33;101596.19;;;10.99;47.12
55517;BME280;41724;51.176;-0.708;2022-09-25T06:49:00;101599.54;;;11.10;47.02
55517;BME280;41724;51.176;-0.708;2022-09-25T06:51:27;101600.63;;;11.21;47.22
55517;BME280;41724;51.176;-0.708;2022-09-25T06:53:54;101602.01;;;11.18;47.06
55517;BME280;41724;51.176;-0.708;2022-09-25T06:56:22;101601.44;;;11.52;46.96
55517;BME280;41724;51.176;-0.708;2022-09-25T06:58:51;101602.63;;;11.08;47.67
55517;BME280;41724;51.176;-0.708;2022-09-25T07:01:18;101603.43;;;11.15;47.76
55517;BME280;41724;51.176;-0.708;2022-09-25T07:03:45;101602.57;;;11.30;48.45
55517;BME280;41724;51.176;-0.708;2022-09-25T07:06:15;101602.07;;;11.46;48.55
55517;BME280;41724;51.176;-0.708;2022-09-25T07:08:44;101598.39;;;12.02;49.47
55517;BME280;41724;51.176;-0.708;2022-09-25T07:11:14;101602.84;;;11.75;52.03
55517;BME280;41724;51.176;-0.708;2022-09-25T07:13:42;101607.75;;;11.74;52.47
55517;BME280;41724;51.176;-0.708;2022-09-25T07:16:12;101609.76;;;12.01;51.40
55517;BME280;41724;51.176;-0.708;2022-09-25T07:18:40;101613.73;;;12.23;51.40
55517;BME280;41724;51.176;-0.708;2022-09-25T07:21:09;101609.37;;;12.54;50.47
55517;BME280;41724;51.176;-0.708;2022-09-25T07:23:37;101609.75;;;12.82;49.84
55517;BME280;41724;51.176;-0.708;2022-09-25T07:26:07;101608.51;;;13.08;51.58
55517;BME280;41724;51.176;-0.708;2022-09-25T07:28:35;101609.53;;;12.89;50.68
55517;BME280;41724;51.176;-0.708;2022-09-25T07:31:13;101603.12;;;12.86;51.97
55517;BME280;41724;51.176;-0.708;2022-09-25T07:33:40;101600.20;;;12.41;52.09
55517;BME280;41724;51.176;-0.708;2022-09-25T07:36:08;101603.72;;;12.85;52.96
55517;BME280;41724;51.176;-0.708;2022-09-25T07:38:35;101599.19;;;12.66;53.88
55517;BME280;41724;51.176;-0.708;2022-09-25T07:41:02;101593.70;;;13.20;53.01
55517;BME280;41724;51.176;-0.708;2022-09-25T07:43:29;101590.82;;;13.69;52.11
55517;BME280;41724;51.176;-0.708;2022-09-25T07:45:57;101590.65;;;13.79;51.58
55517;BME280;41724;51.176;-0.708;2022-09-25T07:48:24;101588.27;;;13.63;52.10
55517;BME280;41724;51.176;-0.708;2022-09-25T07:50:52;101592.87;;;13.44;51.87
55517;BME280;41724;51.176;-0.708;2022-09-25T07:53:19;101594.18;;;13.47;51.99
55517;BME280;41724;51.176;-0.708;2022-09-25T07:55:46;101592.13;;;13.11;52.74
55517;BME280;41724;51.176;-0.708;2022-09-25T07:58:13;101590.60;;;13.57;51.97
55517;BME280;41724;51.176;-0.708;2022-09-25T08:00:41;101591.82;;;14.06;51.71
55517;BME280;41724;51.176;-0.708;2022-09-25T08:03:08;101591.71;;;14.13;51.07
55517;BME280;41724;51.176;-0.708;2022-09-25T08:05:36;101589.57;;;14.18;51.41
55517;BME280;41724;51.176;-0.708;2022-09-25T08:08:03;101591.72;;;14.07;51.56
55517;BME280;41724;51.176;-0.708;2022-09-25T08:10:30;101593.43;;;14.35;50.71
55517;BME280;41724;51.176;-0.708;2022-09-25T08:12:58;101598.64;;;14.33;50.25
55517;BME280;41724;51.176;-0.708;2022-09-25T08:15:26;101600.27;;;14.42;50.71
55517;BME280;41724;51.176;-0.708;2022-09-25T08:17:54;101594.47;;;14.28;50.58
55517;BME280;41724;51.176;-0.708;2022-09-25T08:20:21;101589.12;;;14.14;51.03
55517;BME280;41724;51.176;-0.708;2022-09-25T08:22:52;101592.87;;;13.98;50.64
55517;BME280;41724;51.176;-0.708;2022-09-25T08:25:22;101594.93;;;14.39;50.69
55517;BME280;41724;51.176;-0.708;2022-09-25T08:27:49;101597.61;;;14.72;49.90
55517;BME280;41724;51.176;-0.708;2022-09-25T08:30:16;101598.67;;;14.71;50.16
55517;BME280;41724;51.176;-0.708;2022-09-25T08:32:43;101605.50;;;14.84;50.13
55517;BME280;41724;51.176;-0.708;2022-09-25T08:35:11;101606.10;;;15.53;48.82
55517;BME280;41724;51.176;-0.708;2022-09-25T08:37:40;101607.19;;;14.69;49.45
55517;BME280;41724;51.176;-0.708;2022-09-25T08:40:16;101607.79;;;15.27;48.85
55517;BME280;41724;51.176;-0.708;2022-09-25T08:42:44;101613.92;;;14.18;51.52
55517;BME280;41724;51.176;-0.708;2022-09-25T08:45:24;101615.61;;;14.34;50.63
55517;BME280;41724;51.176;-0.708;2022-09-25T08:47:53;101615.47;;;14.74;50.66
55517;BME280;41724;51.176;-0.708;2022-09-25T08:50:24;101618.89;;;14.83;49.97
55517;BME280;41724;51.176;-0.708;2022-09-25T08:53:01;101612.38;;;15.07;48.80
55517;BME280;41724;51.176;-0.708;2022-09-25T08:55:32;101617.18;;;14.95;49.88
55517;BME280;41724;51.176;-0.708;2022-09-25T08:57:59;101615.59;;;15.35;49.39
55517;BME280;41724;51.176;-0.708;2022-09-25T09:00:26;101615.05;;;15.50;48.56
55517;BME280;41724;51.176;-0.708;2022-09-25T09:02:55;101617.20;;;15.63;48.14
55517;BME280;41724;51.176;-0.708;2022-09-25T09:05:26;101616.92;;;15.81;47.52
55517;BME280;41724;51.176;-0.708;2022-09-25T09:07:57;101619.45;;;15.84;47.06
55517;BME280;41724;51.176;-0.708;2022-09-25T09:10:31;101614.22;;;15.50;47.90
55517;BME280;41724;51.176;-0.708;2022-09-25T09:13:05;101612.77;;;15.66;47.35
55517;BME280;41724;51.176;-0.708;2022-09-25T09:15:41;101615.01;;;14.87;49.81
55517;BME280;41724;51.176;-0.708;2022-09-25T09:18:18;101613.48;;;15.51;48.51
55517;BME280;41724;51.176;-0.708;2022-09-25T09:20:51;101604.73;;;15.49;49.24
55517;BME280;41724;51.176;-0.708;2022-09-25T09:23:19;101608.50;;;15.52;49.10
55517;BME280;41724;51.176;-0.708;2022-09-25T09:25:57;101604.65;;;16.45;46.91
55517;BME280;41724;51.176;-0.708;2022-09-25T09:28:45;101612.35;;;16.27;46.45
55517;BME280;41724;51.176;-0.708;2022-09-25T09:31:21;101611.99;;;16.69;45.47
55517;BME280;41724;51.176;-0.708;2022-09-25T09:34:00;101609.06;;;16.39;45.53
55517;BME280;41724;51.176;-0.708;2022-09-25T09:36:36;101603.07;;;16.25;45.19
55517;BME280;41724;51.176;-0.708;2022-09-25T09:39:12;101598.70;;;16.46;45.99
55517;BME280;41724;51.176;-0.708;2022-09-25T09:41:54;101596.23;;;16.12;46.83
55517;BME280;41724;51.176;-0.708;2022-09-25T09:44:36;101597.98;;;16.75;45.32
55517;BME280;41724;51.176;-0.708;2022-09-25T09:47:18;101588.21;;;17.08;43.85
55517;BME280;41724;51.176;-0.708;2022-09-25T09:49:54;101585.71;;;16.95;43.26
55517;BME280;41724;51.176;-0.708;2022-09-25T09:52:28;101575.44;;;17.28;43.44
55517;BME280;41724;51.176;-0.708;2022-09-25T09:55:01;101573.77;;;17.30;44.26
55517;BME280;41724;51.176;-0.708;2022-09-25T09:57:38;101569.29;;;17.43;42.56
55517;BME280;41724;51.176;-0.708;2022-09-25T10:00:15;101575.11;;;17.09;42.21
55517;BME280;41724;51.176;-0.708;2022-09-25T10:02:50;101565.88;;;16.59;42.28
55517;BME280;41724;51.176;-0.708;2022-09-25T10:05:24;101565.39;;;17.07;41.59
55517;BME280;41724;51.176;-0.708;2022-09-25T10:07:52;101562.91;;;16.52;43.19
55517;BME280;41724;51.176;-0.708;2022-09-25T10:10:20;101562.37;;;17.02;41.57
55517;BME280;41724;51.176;-0.708;2022-09-25T10:12:52;101561.56;;;17.25;41.63
55517;BME280;41724;51.176;-0.708;2022-09-25T10:15:26;101558.51;;;17.47;42.16
55517;BME280;41724;51.176;-0.708;2022-09-25T10:17:58;101557.22;;;17.63;41.17
55517;BME280;41724;51.176;-0.708;2022-09-25T10:20:29;101556.82;;;17.70;39.50
55517;BME280;41724;51.176;-0.708;2022-09-25T10:23:03;101556.59;;;17.53;38.51
55517;BME280;41724;51.176;-0.708;2022-09-25T10:25:40;101555.28;;;18.05;39.25
55517;BME280;41724;51.176;-0.708;2022-09-25T10:28:27;101550.50;;;17.79;39.67
55517;BME280;41724;51.176;-0.708;2022-09-25T10:30:55;101542.27;;;17.78;38.54
55517;BME280;41724;51.176;-0.708;2022-09-25T10:33:24;101542.11;;;17.76;38.29
55517;BME280;41724;51.176;-0.708;2022-09-25T10:35:52;101535.52;;;17.81;37.40
55517;BME280;41724;51.176;-0.708;2022-09-25T10:38:37;101531.11;;;17.55;36.58
55517;BME280;41724;51.176;-0.708;2022-09-25T10:41:08;101528.49;;;17.91;37.64
55517;BME280;41724;51.176;-0.708;2022-09-25T10:43:51;101529.18;;;18.30;37.92
55517;BME280;41724;51.176;-0.708;2022-09-25T10:46:26;101529.49;;;17.98;36.40
55517;BME280;41724;51.176;-0.708;2022-09-25T10:49:12;101535.01;;;17.21;36.61
55517;BME280;41724;51.176;-0.708;2022-09-25T10:52:00;101534.06;;;17.24;37.28
55517;BME280;41724;51.176;-0.708;2022-09-25T10:54:28;101528.11;;;17.62;34.70
55517;BME280;41724;51.176;-0.708;2022-09-25T10:56:55;101523.11;;;17.72;34.59
55517;BME280;41724;51.176;-0.708;2022-09-25T10:59:23;101517.83;;;17.75;34.68
55517;BME280;41724;51.176;-0.708;2022-09-25T11:01:51;101515.35;;;17.37;34.43
55517;BME280;41724;51.176;-0.708;2022-09-25T11:04:22;101509.77;;;18.01;34.71
55517;BME280;41724;51.176;-0.708;2022-09-25T11:06:52;101506.89;;;18.63;33.11
55517;BME280;41724;51.176;-0.708;2022-09-25T11:09:24;101503.45;;;18.58;32.52
55517;BME280;41724;51.176;-0.708;2022-09-25T11:12:05;101505.74;;;18.70;32.71
55517;BME280;41724;51.176;-0.708;2022-09-25T11:14:34;101497.49;;;19.34;30.82
55517;BME280;41724;51.176;-0.708;2022-09-25T11:17:03;101497.88;;;19.67;30.58
55517;BME280;41724;51.176;-0.708;2022-09-25T11:19:32;101491.83;;;19.43;29.86
55517;BME280;41724;51.176;-0.708;2022-09-25T11:22:09;101489.74;;;19.97;29.96
55517;BME280;41724;51.176;-0.708;2022-09-25T11:24:46;101483.60;;;20.25;29.33
55517;BME280;41724;51.176;-0.708;2022-09-25T11:27:18;101479.70;;;19.63;29.02
55517;BME280;41724;51.176;-0.708;2022-09-25T11:29:53;101484.66;;;19.56;28.69
55517;BME280;41724;51.176;-0.708;2022-09-25T11:32:28;101484.56;;;20.30;28.40
55517;BME280;41724;51.176;-0.708;2022-09-25T11:35:17;101482.40;;;19.90;27.97
55517;BME280;41724;51.176;-0.708;2022-09-25T11:37:57;101480.15;;;20.03;26.66
55517;BME280;41724;51.176;-0.708;2022-09-25T11:40:34;101477.22;;;19.45;27.71
55517;BME280;41724;51.176;-0.708;2022-09-25T11:43:06;101482.02;;;20.19;27.48
55517;BME280;41724;51.176;-0.708;2022-09-25T11:45:40;101474.79;;;20.46;27.83
55517;BME280;41724;51.176;-0.708;2022-09-25T11:48:17;101474.03;;;20.47;25.69
55517;BME280;41724;51.176;-0.708;2022-09-25T11:50:59;101469.43;;;21.28;26.05
55517;BME280;41724;51.176;-0.708;2022-09-25T11:53:36;101452.26;;;21.51;27.25
55517;BME280;41724;51.176;-0.708;2022-09-25T11:56:21;101464.83;;;20.76;25.69
55517;BME280;41724;51.176;-0.708;2022-09-25T11:59:05;101449.37;;;21.34;25.16
55517;BME280;41724;51.176;-0.708;2022-09-25T12:01:41;101445.92;;;20.69;26.15
55517;BME280;41724;51.176;-0.708;2022-09-25T12:04:32;101435.58;;;20.69;25.49
55517;BME280;41724;51.176;-0.708;2022-09-25T12:07:11;101433.36;;;20.95;25.72
55517;BME280;41724;51.176;-0.708;2022-09-25T12:09:55;101424.83;;;22.03;25.92
55517;BME280;41724;51.176;-0.708;2022-09-25T12:12:31;101425.88;;;22.36;25.14
55517;BME280;41724;51.176;-0.708;2022-09-25T12:15:06;101428.76;;;21.74;24.58
55517;BME280;41724;51.176;-0.708;2022-09-25T12:17:43;101423.73;;;22.08;23.92
55517;BME280;41724;51.176;-0.708;2022-09-25T12:20:22;101418.71;;;21.71;23.89
55517;BME280;41724;51.176;-0.708;2022-09-25T12:23:07;101414.33;;;22.14;25.84
55517;BME280;41724;51.176;-0.708;2022-09-25T12:25:50;101409.70;;;22.06;24.87
55517;BME280;41724;51.176;-0.708;2022-09-25T12:28:29;101406.96;;;21.54;25.63
55517;BME280;41724;51.176;-0.708;2022-09-25T12:31:06;101399.30;;;21.99;24.86
55517;BME280;41724;51.176;-0.708;2022-09-25T12:33:43;101393.81;;;20.71;24.61
55517;BME280;41724;51.176;-0.708;2022-09-25T12:36:15;101395.02;;;21.23;26.32
55517;BME280;41724;51.176;-0.708;2022-09-25T12:38:49;101389.92;;;21.20;25.03
55517;BME280;41724;51.176;-0.708;2022-09-25T12:41:22;101393.24;;;21.59;25.38
55517;BME280;41724;51.176;-0.708;2022-09-25T12:43:56;101391.31;;;22.10;25.28
55517;BME280;41724;51.176;-0.708;2022-09-25T12:46:29;101389.96;;;22.34;24.68
55517;BME280;41724;51.176;-0.708;2022-09-25T12:49:07;101389.41;;;22.74;23.99
55517;BME280;41724;51.176;-0.708;2022-09-25T12:51:40;101384.20;;;22.10;22.85
55517;BME280;41724;51.176;-0.708;2022-09-25T12:54:19;101382.76;;;22.47;23.79
55517;BME280;41724;51.176;-0.708;2022-09-25T12:56:52;101372.96;;;22.40;23.64
55517;BME280;41724;51.176;-0.708;2022-09-25T12:59:27;101370.33;;;22.94;22.88
55517;BME280;41724;51.176;-0.708;2022-09-25T13:02:01;101362.00;;;22.50;23.27